Ceahlau Toaca, Romania
Current Conditions -  °F | °C
As of 3:30 PM on Saturday 25 Oct 2014 (Local Time) from LRBC Reporting Station
Scattered Clouds Scattered Clouds  
Wind Chill: 29°   Ceiling: Unl
Heat Index: 37°   Visibility: 6mi
Dew Point: 28°   Wind: 14mph
Humidity: 70%   Direction: 350°N
Pressure: 30.42"   Gusts: NA
Location:  46.93°N, 25.92°E
Report Text: LRBC 251230Z 35012KT 9999 SCT023 03/M02 Q1030
Loading
Personal Weather Stations






























Interactive Weather Map
Tropical Storm Tracking
New forecast layout! Learn more

10-Day Weather Forecast

Advertisements
Track Severe Weather on mobile